Captain D — WDH2354 — position and weather

sailwx.info

Track history (hours):
 
Tides and Currents Weather Stations Pressure Air Temp Water Temp Dewpoint Dewpoint Depression Visibility Wind Speed Wind Dir Waves Ship Positions

Captain D

Owner: Gilmerton Tugs LLC/Captain D, Norfolk, VA. More information available from US FCC via Universal Licensing System and Coast Guard Vessel Documentation Center.

Last reported at 2017-Oct-22 13:48 UTC. Time now 2017-Oct-22 17:44 UTC.
Position N 40°46' W 073°51'.

Length 27 m; draft 3.7 m.

Type: Tug. MMSI: 367596760.

Date/timePositionNaut miles runAvg speedWind from/ knotsBaromVisibWave heightAir tempDewpointWater temp
2017-Oct-22 13:48N 40°46' W 073°51'0 0.0
2017-Oct-22 13:30N 40°46' W 073°51'0 0.0
2017-Oct-22 12:57N 40°46' W 073°51'0 0.0
2017-Oct-22 12:29N 40°46' W 073°51'0 0.0
2017-Oct-22 11:43N 40°46' W 073°51'0 0.0
2017-Oct-22 11:23N 40°46' W 073°51'0 0.0
2017-Oct-22 10:34N 40°46' W 073°51'0 0.0
2017-Oct-22 10:28N 40°46' W 073°51'0 0.0
2017-Oct-22 09:58N 40°46' W 073°51'0 0.0
2017-Oct-22 09:30N 40°46' W 073°51'0 0.0
2017-Oct-22 09:00N 40°46' W 073°51'0 0.0
2017-Oct-22 08:30N 40°46' W 073°51'0 0.0
2017-Oct-22 08:00N 40°46' W 073°51'0 0.0
2017-Oct-22 07:23N 40°46' W 073°51'0 0.0
2017-Oct-22 04:56N 40°46' W 073°51'0 0.0
2017-Oct-22 04:30N 40°46' W 073°51'0 0.0
2017-Oct-22 04:00N 40°46' W 073°51'0 0.0
2017-Oct-22 03:30N 40°46' W 073°51'0 0.0
2017-Oct-22 02:56N 40°46' W 073°51'0 0.0
2017-Oct-22 01:59N 40°46' W 073°51'0 0.1
2017-Oct-22 01:26N 40°46' W 073°51'0 0.1
2017-Oct-22 00:57N 40°46' W 073°51'0 0.0
2017-Oct-21 12:54N 40°46' W 073°51'0 0.0
2017-Oct-21 12:28N 40°46' W 073°51'0 0.0
2017-Oct-21 11:38N 40°46' W 073°51'0 0.0
2017-Oct-21 11:30N 40°46' W 073°51'0 0.0
2017-Oct-21 10:57N 40°46' W 073°51'0 0.0
2017-Oct-21 10:22N 40°46' W 073°51'0 0.0
2017-Oct-21 10:00N 40°46' W 073°51'0 0.0
2017-Oct-21 09:30N 40°46' W 073°51'0 0.0
2017-Oct-21 08:58N 40°46' W 073°51'0 0.0
2017-Oct-21 08:28N 40°46' W 073°51'0 0.0
2017-Oct-21 08:00N 40°46' W 073°51'0 0.0
2017-Oct-21 07:30N 40°46' W 073°51'0 0.0
2017-Oct-21 07:00N 40°46' W 073°51'0 0.0
2017-Oct-21 06:30N 40°46' W 073°51'0 0.0
2017-Oct-21 04:58N 40°46' W 073°51'0 0.0
2017-Oct-21 04:25N 40°46' W 073°51'0 0.0
2017-Oct-21 03:39N 40°46' W 073°51'0 0.0
2017-Oct-21 03:30N 40°46' W 073°51'0 0.0
2017-Oct-21 03:00N 40°46' W 073°51'0 0.0
2017-Oct-21 02:00N 40°46' W 073°51'0 0.0
2017-Oct-21 01:26N 40°46' W 073°51'1 1.7
2017-Oct-21 00:57N 40°47' W 073°52'2 4.8
2017-Oct-21 00:28N 40°48' W 073°54'4 8.7
2017-Oct-21 00:00N 40°45' W 073°58'4 7.0
2017-Oct-20 23:30N 40°42' W 074°00'3 6.1
2017-Oct-20 23:00N 40°40' W 074°03'4 4.3
2017-Oct-20 22:09N 40°39' W 074°07'1 3.8
2017-Oct-20 22:00N 40°39' W 074°08'2 3.1
2017-Oct-20 21:13N 40°39' W 074°11'0 1.3
2017-Oct-20 20:56N 40°38' W 074°12'0 0.0
2017-Oct-20 20:24N 40°38' W 074°12'0 0.0
2017-Oct-20 19:54N 40°38' W 074°12'0 0.0
2017-Oct-20 19:28N 40°38' W 074°12'0 0.0
2017-Oct-20 19:00N 40°38' W 074°12'0 0.0
2017-Oct-20 18:23N 40°38' W 074°12'0 0.0
2017-Oct-20 17:58N 40°38' W 074°12'0 0.0
2017-Oct-20 15:54N 40°38' W 074°12'0 0.0
2017-Oct-20 15:22N 40°38' W 074°12'0 0.0
2017-Oct-20 14:59N 40°38' W 074°12'0 0.0
2017-Oct-20 13:55N 40°38' W 074°12'0 0.0
2017-Oct-20 13:15N 40°38' W 074°12'0 0.0
2017-Oct-20 12:59N 40°38' W 074°12'0 0.0
2017-Oct-20 12:18N 40°38' W 074°12'0 0.0
2017-Oct-20 11:58N 40°38' W 074°12'0 0.0
2017-Oct-20 11:29N 40°38' W 074°12'0 0.0
2017-Oct-20 10:59N 40°38' W 074°12'1 1.1
2017-Oct-20 10:29N 40°39' W 074°11'2 4.9
2017-Oct-20 10:00N 40°39' W 074°08'3 5.9
2017-Oct-20 09:30N 40°39' W 074°04'2 4.9
2017-Oct-20 09:00N 40°41' W 074°02'2 4.9
2017-Oct-20 08:30N 40°42' W 073°59'3 5.2
2017-Oct-20 08:00N 40°45' W 073°58'4 6.8
2017-Oct-20 07:28N 40°48' W 073°55'2 3.8
2017-Oct-20 06:52N 40°47' W 073°52'1 2.0
2017-Oct-20 06:13N 40°46' W 073°51'0 0.2
2017-Oct-20 05:59N 40°46' W 073°51'0 0.0
2017-Oct-20 05:29N 40°46' W 073°51'0 0.0
2017-Oct-20 04:59N 40°46' W 073°51'0 0.0
2017-Oct-20 04:30N 40°46' W 073°51'0 0.0
2017-Oct-20 03:59N 40°46' W 073°51'0 0.0
2017-Oct-20 01:43N 40°46' W 073°51'0 0.0
2017-Oct-20 00:38N 40°46' W 073°51'1 2.3
2017-Oct-20 00:21N 40°47' W 073°51'1 4.2
2017-Oct-19 23:59N 40°48' W 073°53'4 7.5
2017-Oct-19 23:29N 40°46' W 073°57'4 7.9
2017-Oct-19 23:00N 40°42' W 073°59'3 6.8
2017-Oct-19 22:30N 40°40' W 074°02'3 4.9
2017-Oct-19 21:56N 40°39' W 074°06'2 3.5
2017-Oct-19 21:22N 40°39' W 074°08'1 3.9
2017-Oct-19 21:00N 40°39' W 074°10'1 1.6
2017-Oct-19 20:12N 40°38' W 074°12'0 0.0
2017-Oct-19 20:00N 40°38' W 074°12'0 0.0
2017-Oct-19 18:45N 40°38' W 074°12'0 0.0
2017-Oct-19 18:27N 40°38' W 074°12'0 0.0
2017-Oct-19 18:00N 40°38' W 074°12'0 0.0
2017-Oct-19 16:57N 40°38' W 074°12'0 0.1
2017-Oct-19 16:12N 40°38' W 074°12'0 0.0
2017-Oct-19 15:58N 40°38' W 074°12'0 0.0
2017-Oct-19 15:28N 40°38' W 074°12'0 0.0
2017-Oct-19 14:58N 40°38' W 074°12'0 0.0
2017-Oct-19 13:39N 40°38' W 074°12'0 0.0
2017-Oct-19 13:27N 40°38' W 074°12'0 0.0
2017-Oct-19 12:12N 40°38' W 074°12'0 0.0
2017-Oct-19 11:54N 40°38' W 074°12'0 0.0
2017-Oct-19 11:30N 40°38' W 074°12'0 0.0
2017-Oct-19 10:58N 40°38' W 074°12'0 0.0
2017-Oct-19 10:30N 40°38' W 074°12'0 0.0
2017-Oct-19 09:59N 40°38' W 074°12'0 0.0
2017-Oct-19 09:29N 40°38' W 074°12'0 0.0
2017-Oct-19 09:00N 40°38' W 074°12'1 1.2
2017-Oct-19 08:30N 40°39' W 074°11'2 5.1
2017-Oct-19 08:00N 40°39' W 074°08'2 5.0
2017-Oct-19 07:30N 40°39' W 074°05'2 4.8
2017-Oct-19 07:00N 40°41' W 074°02'3 5.6
2017-Oct-19 06:30N 40°42' W 073°59'3 6.3
2017-Oct-19 06:00N 40°45' W 073°58'5 4.3
2017-Oct-19 04:53N 40°47' W 073°51'1 0.1
2017-Oct-18 23:26N 40°46' W 073°51'1 2.3
2017-Oct-18 22:56N 40°47' W 073°52'2 4.2
2017-Oct-18 22:29N 40°48' W 073°54'4 7.7
2017-Oct-18 22:00N 40°46' W 073°57'3 6.7
2017-Oct-18 21:30N 40°43' W 073°59'3 6.4
2017-Oct-18 21:00N 40°40' W 074°02'2 4.6
2017-Oct-18 20:30N 40°39' W 074°04'2 3.4
2017-Oct-18 19:56N 40°39' W 074°07'2 3.9
2017-Oct-18 19:28N 40°39' W 074°09'2 3.8
2017-Oct-18 19:00N 40°38' W 074°12'0 0.0
2017-Oct-18 18:25N 40°38' W 074°12'0 0.0
2017-Oct-18 17:58N 40°38' W 074°12'0 0.0
2017-Oct-18 17:28N 40°38' W 074°12'0 0.0
2017-Oct-18 16:58N 40°38' W 074°12'0 0.0
2017-Oct-18 16:25N 40°38' W 074°12'0 0.1
2017-Oct-18 15:59N 40°38' W 074°12'0 0.0
2017-Oct-18 15:23N 40°38' W 074°12'0 0.0
2017-Oct-18 14:59N 40°38' W 074°12'0 0.0
2017-Oct-18 13:59N 40°38' W 074°12'0 0.0
2017-Oct-18 13:29N 40°38' W 074°12'0 0.0
2017-Oct-18 12:56N 40°38' W 074°12'0 0.0
2017-Oct-18 12:29N 40°38' W 074°12'0 0.0
2017-Oct-18 11:54N 40°38' W 074°12'0 0.0
2017-Oct-18 11:30N 40°38' W 074°12'0 0.0
2017-Oct-18 11:01N 40°38' W 074°12'0 0.0
2017-Oct-18 10:31N 40°38' W 074°12'0 0.0
2017-Oct-18 10:00N 40°38' W 074°12'0 0.0
2017-Oct-18 09:30N 40°38' W 074°12'0 0.0
2017-Oct-18 09:01N 40°38' W 074°12'0 0.0
2017-Oct-18 08:30N 40°38' W 074°12'0 0.6
2017-Oct-18 08:00N 40°39' W 074°11'3 4.9
2017-Oct-18 07:30N 40°39' W 074°08'2 5.1
2017-Oct-18 07:01N 40°39' W 074°05'2 4.4
2017-Oct-18 06:31N 40°40' W 074°02'3 5.6
2017-Oct-18 06:01N 40°42' W 073°60'3 5.4
2017-Oct-18 05:31N 40°45' W 073°58'4 7.6
2017-Oct-18 05:00N 40°48' W 073°55'2 4.3
2017-Oct-18 04:27N 40°47' W 073°52'1 3.0
2017-Oct-18 04:00N 40°46' W 073°51'0 0.0
2017-Oct-17 22:47N 40°46' W 073°51'0 0.1
2017-Oct-17 22:11N 40°46' W 073°51'0 0.2
2017-Oct-17 21:53N 40°46' W 073°51'0 0.0
2017-Oct-17 21:23N 40°46' W 073°51'0 0.0
2017-Oct-17 20:59N 40°46' W 073°51'0 0.0
2017-Oct-17 17:14N 40°46' W 073°51'0 0.0
2017-Oct-17 16:56N 40°46' W 073°51'0 0.0
2017-Oct-17 15:59N 40°46' W 073°51'0 0.0
2017-Oct-17 15:14N 40°46' W 073°51'0 0.0
2017-Oct-17 14:17N 40°46' W 073°51'0 0.0
2017-Oct-17 13:14N 40°46' W 073°51'0 0.0
2017-Oct-17 12:59N 40°46' W 073°51'0 0.0
2017-Oct-17 12:30N 40°46' W 073°51'0 0.0
2017-Oct-17 12:01N 40°46' W 073°51'1 1.3
2017-Oct-17 11:29N 40°47' W 073°51'2 4.8
2017-Oct-17 11:00N 40°48' W 073°54'4 8.1
2017-Oct-17 10:30N 40°45' W 073°58'3 6.8
2017-Oct-17 10:01N 40°42' W 073°60'3 6.3
2017-Oct-17 09:31N 40°40' W 074°03'2 4.8
2017-Oct-17 09:00N 40°39' W 074°05'2 4.0
2017-Oct-17 08:30N 40°39' W 074°08'2 4.4
2017-Oct-17 08:00N 40°39' W 074°11'1 1.4
2017-Oct-17 07:30N 40°38' W 074°12'1 2.9
2017-Oct-17 07:00N 40°39' W 074°10'3 5.4
2017-Oct-17 06:30N 40°39' W 074°06'2 4.6
2017-Oct-17 06:01N 40°40' W 074°03'3 5.5
2017-Oct-17 05:31N 40°41' W 074°01'3 5.9
2017-Oct-17 05:00N 40°44' W 073°58'4 6.9
2017-Oct-17 04:29N 40°47' W 073°56'3 5.5
2017-Oct-17 03:59N 40°48' W 073°53'2 3.2
2017-Oct-17 03:29N 40°47' W 073°51'0 0.1
2017-Oct-17 00:06N 40°46' W 073°51'0 0.1
2017-Oct-16 23:56N 40°46' W 073°51'0 0.0
2017-Oct-16 23:05N 40°46' W 073°51'0 0.3
2017-Oct-16 22:55N 40°46' W 073°51'0 0.0
2017-Oct-16 22:20N 40°46' W 073°51'0 0.1
2017-Oct-16 22:00N 40°46' W 073°51'0 0.0
2017-Oct-16 21:31N 40°46' W 073°51'0 0.9
2017-Oct-16 21:00N 40°47' W 073°51'2 4.5
2017-Oct-16 20:30N 40°48' W 073°54'4 7.6
2017-Oct-16 19:59N 40°46' W 073°57'3 6.7
2017-Oct-16 19:31N 40°43' W 073°59'3 6.0
2017-Oct-16 19:01N 40°41' W 074°02'2 3.9
2017-Oct-16 18:30N 40°39' W 074°03'2 4.1
2017-Oct-16 17:59N 40°39' W 074°06'2 4.4
2017-Oct-16 17:25N 40°39' W 074°09'2 4.1
2017-Oct-16 17:00N 40°38' W 074°12'0 0.0
2017-Oct-16 15:35N 40°38' W 074°12'0 0.0
2017-Oct-16 15:26N 40°38' W 074°12'0 0.0
2017-Oct-16 14:50N 40°38' W 074°12'0 0.0
2017-Oct-16 13:59N 40°38' W 074°12'0 0.1
2017-Oct-16 13:29N 40°38' W 074°12'0 0.0
2017-Oct-16 12:53N 40°38' W 074°12'0 0.0
2017-Oct-16 12:29N 40°38' W 074°12'0 0.0
2017-Oct-16 11:59N 40°38' W 074°12'0 0.0
2017-Oct-16 11:17N 40°38' W 074°12'0 0.0
2017-Oct-16 10:53N 40°38' W 074°12'0 0.0
2017-Oct-16 10:23N 40°38' W 074°12'0 0.0
2017-Oct-16 09:59N 40°38' W 074°12'0 0.0
2017-Oct-16 09:29N 40°38' W 074°12'0 0.0
2017-Oct-16 08:59N 40°38' W 074°12'0 0.0
2017-Oct-16 08:23N 40°38' W 074°12'0 0.0
2017-Oct-16 07:56N 40°38' W 074°12'0 0.0
2017-Oct-16 07:29N 40°38' W 074°12'0 0.0
2017-Oct-16 06:59N 40°38' W 074°12'0 0.0
2017-Oct-16 06:29N 40°38' W 074°12'0 0.0
2017-Oct-16 05:59N 40°38' W 074°12'0 0.0
2017-Oct-16 05:29N 40°38' W 074°12'0 0.0
2017-Oct-16 04:59N 40°38' W 074°12'0 0.0
2017-Oct-16 04:29N 40°38' W 074°12'0 0.0
2017-Oct-16 03:59N 40°38' W 074°12'0 0.0
2017-Oct-16 03:29N 40°38' W 074°12'0 0.0
2017-Oct-16 02:59N 40°38' W 074°12'0 0.0
2017-Oct-16 02:29N 40°38' W 074°12'0 0.0
2017-Oct-16 01:59N 40°38' W 074°12'0 0.0
2017-Oct-16 01:20N 40°38' W 074°12'0 0.0
2017-Oct-16 00:53N 40°38' W 074°12'0 0.0
2017-Oct-16 00:29N 40°38' W 074°12'0 0.0
2017-Oct-15 23:59N 40°38' W 074°12'0 0.0
2017-Oct-15 23:29N 40°38' W 074°12'0 0.0
2017-Oct-15 22:56N 40°38' W 074°12'0 0.0
2017-Oct-15 22:29N 40°38' W 074°12'0 0.1
2017-Oct-15 21:58N 40°38' W 074°12'0 0.0
2017-Oct-15 21:28N 40°38' W 074°12'0 0.0
2017-Oct-15 20:58N 40°38' W 074°12'0 0.0
2017-Oct-15 20:22N 40°38' W 074°12'0 0.0
2017-Oct-15 19:58N 40°38' W 074°12'0 0.0
2017-Oct-15 19:28N 40°38' W 074°12'0 0.0
2017-Oct-15 18:59N 40°38' W 074°12'0 0.0
2017-Oct-15 18:28N 40°38' W 074°12'0 0.0
2017-Oct-15 17:59N 40°38' W 074°12'1 1.8
2017-Oct-15 17:30N 40°39' W 074°11'2 4.7
2017-Oct-15 16:59N 40°39' W 074°08'2 4.6
2017-Oct-15 16:30N 40°39' W 074°05'2 4.4
2017-Oct-15 16:00N 40°40' W 074°02'3 5.3
2017-Oct-15 15:30N 40°42' W 073°60'3 5.5
2017-Oct-15 15:00N 40°45' W 073°58'5 4.7
2017-Oct-15 13:51N 40°47' W 073°52'1 3.3
2017-Oct-15 13:30N 40°46' W 073°51'0 0.0
2017-Oct-13 22:24N 40°46' W 073°51'0 0.0
2017-Oct-13 22:00N 40°46' W 073°51'1 2.6
2017-Oct-13 21:30N 40°47' W 073°52'2 3.9
2017-Oct-13 20:59N 40°48' W 073°54'3 6.0
2017-Oct-13 20:30N 40°46' W 073°57'3 5.8
2017-Oct-13 20:00N 40°43' W 073°58'3 6.3
2017-Oct-13 19:30N 40°41' W 074°01'3 5.4
2017-Oct-13 18:58N 40°39' W 074°04'3 4.8
2017-Oct-13 18:18N 40°39' W 074°08'2 5.2
2017-Oct-13 18:00N 40°39' W 074°11'1 1.6
2017-Oct-13 17:19N 40°38' W 074°12'0 0.0
2017-Oct-13 16:49N 40°38' W 074°12'0 0.0
2017-Oct-13 16:28N 40°38' W 074°12'0 0.0
2017-Oct-13 15:49N 40°38' W 074°12'0 0.4
2017-Oct-13 15:26N 40°38' W 074°12'1 3.1
2017-Oct-13 15:00N 40°39' W 074°10'2 4.5
2017-Oct-13 14:30N 40°39' W 074°07'2 3.9
2017-Oct-13 14:00N 40°39' W 074°04'2 4.2
2017-Oct-13 13:30N 40°41' W 074°02'3 5.6
2017-Oct-13 13:00N 40°42' W 073°60'3 5.8
2017-Oct-13 12:30N 40°45' W 073°58'4 7.4
2017-Oct-13 11:59N 40°48' W 073°54'2 4.2
2017-Oct-13 11:27N 40°47' W 073°52'1 0.4
2017-Oct-13 08:08N 40°46' W 073°51'0 0.0
2017-Oct-13 07:41N 40°46' W 073°51'0 0.0
2017-Oct-13 07:26N 40°46' W 073°51'0 0.0
2017-Oct-13 06:57N 40°46' W 073°51'0 0.1
2017-Oct-13 06:21N 40°46' W 073°51'0 0.0
2017-Oct-13 05:57N 40°46' W 073°51'0 0.0
2017-Oct-13 05:27N 40°46' W 073°51'0 0.0
2017-Oct-13 04:54N 40°46' W 073°51'0 0.0
2017-Oct-13 04:30N 40°46' W 073°51'0 0.0
2017-Oct-13 03:33N 40°46' W 073°51'0 0.0
2017-Oct-13 03:21N 40°46' W 073°51'0 0.0
2017-Oct-13 02:15N 40°46' W 073°51'0 0.0
2017-Oct-13 01:57N 40°46' W 073°51'0 0.0
2017-Oct-13 01:27N 40°46' W 073°51'0 0.0
2017-Oct-12 22:23N 40°46' W 073°51'0 0.0
2017-Oct-12 21:51N 40°46' W 073°51'0 0.0
2017-Oct-12 21:29N 40°46' W 073°51'0 0.0
2017-Oct-12 21:00N 40°46' W 073°51'0 0.0
2017-Oct-12 20:30N 40°46' W 073°51'0 0.0
2017-Oct-12 20:00N 40°46' W 073°51'0 0.0
2017-Oct-12 19:30N 40°46' W 073°51'1 2.6
2017-Oct-12 19:00N 40°47' W 073°52'2 4.0
2017-Oct-12 18:28N 40°48' W 073°54'3 7.2
2017-Oct-12 17:59N 40°45' W 073°58'3 6.0
2017-Oct-12 17:30N 40°42' W 073°59'3 5.7
2017-Oct-12 17:00N 40°41' W 074°02'2 4.9
2017-Oct-12 16:30N 40°39' W 074°04'3 4.1
2017-Oct-12 15:51N 40°39' W 074°08'2 3.9
2017-Oct-12 15:28N 40°39' W 074°10'1 3.2
2017-Oct-12 15:00N 40°38' W 074°12'1 1.5
2017-Oct-12 14:30N 40°39' W 074°11'3 4.8
2017-Oct-12 13:59N 40°39' W 074°08'  
Track history (hours):
 
Tides and Currents Weather Stations Pressure Air Temp Water Temp Dewpoint Dewpoint Depression Visibility Wind Speed Wind Dir Waves Ship Positions

Captain D

Owner: Gilmerton Tugs LLC/Captain D, Norfolk, VA. More information available from US FCC via Universal Licensing System and Coast Guard Vessel Documentation Center.

Last reported at 2017-Oct-22 13:48 UTC. Time now 2017-Oct-22 17:44 UTC.
Position N 40°46' W 073°51'.

Length 27 m; draft 3.7 m.

Type: Tug. MMSI: 367596760.

Date/timePositionNaut miles runAvg speedWind from/ knotsBaromVisibWave heightAir tempDewpointWater temp
2017-Oct-22 13:48N 40°46' W 073°51'0 0.0
2017-Oct-22 13:30N 40°46' W 073°51'0 0.0
2017-Oct-22 12:57N 40°46' W 073°51'0 0.0
2017-Oct-22 12:29N 40°46' W 073°51'0 0.0
2017-Oct-22 11:43N 40°46' W 073°51'0 0.0
2017-Oct-22 11:23N 40°46' W 073°51'0 0.0
2017-Oct-22 10:34N 40°46' W 073°51'0 0.0
2017-Oct-22 10:28N 40°46' W 073°51'0 0.0
2017-Oct-22 09:58N 40°46' W 073°51'0 0.0
2017-Oct-22 09:30N 40°46' W 073°51'0 0.0
2017-Oct-22 09:00N 40°46' W 073°51'0 0.0
2017-Oct-22 08:30N 40°46' W 073°51'0 0.0
2017-Oct-22 08:00N 40°46' W 073°51'0 0.0
2017-Oct-22 07:23N 40°46' W 073°51'0 0.0
2017-Oct-22 04:56N 40°46' W 073°51'0 0.0
2017-Oct-22 04:30N 40°46' W 073°51'0 0.0
2017-Oct-22 04:00N 40°46' W 073°51'0 0.0
2017-Oct-22 03:30N 40°46' W 073°51'0 0.0
2017-Oct-22 02:56N 40°46' W 073°51'0 0.0
2017-Oct-22 01:59N 40°46' W 073°51'0 0.1
2017-Oct-22 01:26N 40°46' W 073°51'0 0.1
2017-Oct-22 00:57N 40°46' W 073°51'0 0.0
2017-Oct-21 12:54N 40°46' W 073°51'0 0.0
2017-Oct-21 12:28N 40°46' W 073°51'0 0.0
2017-Oct-21 11:38N 40°46' W 073°51'0 0.0
2017-Oct-21 11:30N 40°46' W 073°51'0 0.0
2017-Oct-21 10:57N 40°46' W 073°51'0 0.0
2017-Oct-21 10:22N 40°46' W 073°51'0 0.0
2017-Oct-21 10:00N 40°46' W 073°51'0 0.0
2017-Oct-21 09:30N 40°46' W 073°51'0 0.0
2017-Oct-21 08:58N 40°46' W 073°51'0 0.0
2017-Oct-21 08:28N 40°46' W 073°51'0 0.0
2017-Oct-21 08:00N 40°46' W 073°51'0 0.0
2017-Oct-21 07:30N 40°46' W 073°51'0 0.0
2017-Oct-21 07:00N 40°46' W 073°51'0 0.0
2017-Oct-21 06:30N 40°46' W 073°51'0 0.0
2017-Oct-21 04:58N 40°46' W 073°51'0 0.0
2017-Oct-21 04:25N 40°46' W 073°51'0 0.0
2017-Oct-21 03:39N 40°46' W 073°51'0 0.0
2017-Oct-21 03:30N 40°46' W 073°51'0 0.0
2017-Oct-21 03:00N 40°46' W 073°51'0 0.0
2017-Oct-21 02:00N 40°46' W 073°51'0 0.0
2017-Oct-21 01:26N 40°46' W 073°51'1 1.7
2017-Oct-21 00:57N 40°47' W 073°52'2 4.8
2017-Oct-21 00:28N 40°48' W 073°54'4 8.7
2017-Oct-21 00:00N 40°45' W 073°58'4 7.0
2017-Oct-20 23:30N 40°42' W 074°00'3 6.1
2017-Oct-20 23:00N 40°40' W 074°03'4 4.3
2017-Oct-20 22:09N 40°39' W 074°07'1 3.8
2017-Oct-20 22:00N 40°39' W 074°08'2 3.1
2017-Oct-20 21:13N 40°39' W 074°11'0 1.3
2017-Oct-20 20:56N 40°38' W 074°12'0 0.0
2017-Oct-20 20:24N 40°38' W 074°12'0 0.0
2017-Oct-20 19:54N 40°38' W 074°12'0 0.0
2017-Oct-20 19:28N 40°38' W 074°12'0 0.0
2017-Oct-20 19:00N 40°38' W 074°12'0 0.0
2017-Oct-20 18:23N 40°38' W 074°12'0 0.0
2017-Oct-20 17:58N 40°38' W 074°12'0 0.0
2017-Oct-20 15:54N 40°38' W 074°12'0 0.0
2017-Oct-20 15:22N 40°38' W 074°12'0 0.0
2017-Oct-20 14:59N 40°38' W 074°12'0 0.0
2017-Oct-20 13:55N 40°38' W 074°12'0 0.0
2017-Oct-20 13:15N 40°38' W 074°12'0 0.0
2017-Oct-20 12:59N 40°38' W 074°12'0 0.0
2017-Oct-20 12:18N 40°38' W 074°12'0 0.0
2017-Oct-20 11:58N 40°38' W 074°12'0 0.0
2017-Oct-20 11:29N 40°38' W 074°12'0 0.0
2017-Oct-20 10:59N 40°38' W 074°12'1 1.1
2017-Oct-20 10:29N 40°39' W 074°11'2 4.9
2017-Oct-20 10:00N 40°39' W 074°08'3 5.9
2017-Oct-20 09:30N 40°39' W 074°04'2 4.9
2017-Oct-20 09:00N 40°41' W 074°02'2 4.9
2017-Oct-20 08:30N 40°42' W 073°59'3 5.2
2017-Oct-20 08:00N 40°45' W 073°58'4 6.8
2017-Oct-20 07:28N 40°48' W 073°55'2 3.8
2017-Oct-20 06:52N 40°47' W 073°52'1 2.0
2017-Oct-20 06:13N 40°46' W 073°51'0 0.2
2017-Oct-20 05:59N 40°46' W 073°51'0 0.0
2017-Oct-20 05:29N 40°46' W 073°51'0 0.0
2017-Oct-20 04:59N 40°46' W 073°51'0 0.0
2017-Oct-20 04:30N 40°46' W 073°51'0 0.0
2017-Oct-20 03:59N 40°46' W 073°51'0 0.0
2017-Oct-20 01:43N 40°46' W 073°51'0 0.0
2017-Oct-20 00:38N 40°46' W 073°51'1 2.3
2017-Oct-20 00:21N 40°47' W 073°51'1 4.2
2017-Oct-19 23:59N 40°48' W 073°53'4 7.5
2017-Oct-19 23:29N 40°46' W 073°57'4 7.9
2017-Oct-19 23:00N 40°42' W 073°59'3 6.8
2017-Oct-19 22:30N 40°40' W 074°02'3 4.9
2017-Oct-19 21:56N 40°39' W 074°06'2 3.5
2017-Oct-19 21:22N 40°39' W 074°08'1 3.9
2017-Oct-19 21:00N 40°39' W 074°10'1 1.6
2017-Oct-19 20:12N 40°38' W 074°12'0 0.0
2017-Oct-19 20:00N 40°38' W 074°12'0 0.0
2017-Oct-19 18:45N 40°38' W 074°12'0 0.0
2017-Oct-19 18:27N 40°38' W 074°12'0 0.0
2017-Oct-19 18:00N 40°38' W 074°12'0 0.0
2017-Oct-19 16:57N 40°38' W 074°12'0 0.1
2017-Oct-19 16:12N 40°38' W 074°12'0 0.0
2017-Oct-19 15:58N 40°38' W 074°12'0 0.0
2017-Oct-19 15:28N 40°38' W 074°12'0 0.0
2017-Oct-19 14:58N 40°38' W 074°12'0 0.0
2017-Oct-19 13:39N 40°38' W 074°12'0 0.0
2017-Oct-19 13:27N 40°38' W 074°12'0 0.0
2017-Oct-19 12:12N 40°38' W 074°12'0 0.0
2017-Oct-19 11:54N 40°38' W 074°12'0 0.0
2017-Oct-19 11:30N 40°38' W 074°12'0 0.0
2017-Oct-19 10:58N 40°38' W 074°12'0 0.0
2017-Oct-19 10:30N 40°38' W 074°12'0 0.0
2017-Oct-19 09:59N 40°38' W 074°12'0 0.0
2017-Oct-19 09:29N 40°38' W 074°12'0 0.0
2017-Oct-19 09:00N 40°38' W 074°12'1 1.2
2017-Oct-19 08:30N 40°39' W 074°11'2 5.1
2017-Oct-19 08:00N 40°39' W 074°08'2 5.0
2017-Oct-19 07:30N 40°39' W 074°05'2 4.8
2017-Oct-19 07:00N 40°41' W 074°02'3 5.6
2017-Oct-19 06:30N 40°42' W 073°59'3 6.3
2017-Oct-19 06:00N 40°45' W 073°58'5 4.3
2017-Oct-19 04:53N 40°47' W 073°51'1 0.1
2017-Oct-18 23:26N 40°46' W 073°51'1 2.3
2017-Oct-18 22:56N 40°47' W 073°52'2 4.2
2017-Oct-18 22:29N 40°48' W 073°54'4 7.7
2017-Oct-18 22:00N 40°46' W 073°57'3 6.7
2017-Oct-18 21:30N 40°43' W 073°59'3 6.4
2017-Oct-18 21:00N 40°40' W 074°02'2 4.6
2017-Oct-18 20:30N 40°39' W 074°04'2 3.4
2017-Oct-18 19:56N 40°39' W 074°07'2 3.9
2017-Oct-18 19:28N 40°39' W 074°09'2 3.8
2017-Oct-18 19:00N 40°38' W 074°12'0 0.0
2017-Oct-18 18:25N 40°38' W 074°12'0 0.0
2017-Oct-18 17:58N 40°38' W 074°12'0 0.0
2017-Oct-18 17:28N 40°38' W 074°12'0 0.0
2017-Oct-18 16:58N 40°38' W 074°12'0 0.0
2017-Oct-18 16:25N 40°38' W 074°12'0 0.1
2017-Oct-18 15:59N 40°38' W 074°12'0 0.0
2017-Oct-18 15:23N 40°38' W 074°12'0 0.0
2017-Oct-18 14:59N 40°38' W 074°12'0 0.0
2017-Oct-18 13:59N 40°38' W 074°12'0 0.0
2017-Oct-18 13:29N 40°38' W 074°12'0 0.0
2017-Oct-18 12:56N 40°38' W 074°12'0 0.0
2017-Oct-18 12:29N 40°38' W 074°12'0 0.0
2017-Oct-18 11:54N 40°38' W 074°12'0 0.0
2017-Oct-18 11:30N 40°38' W 074°12'0 0.0
2017-Oct-18 11:01N 40°38' W 074°12'0 0.0
2017-Oct-18 10:31N 40°38' W 074°12'0 0.0
2017-Oct-18 10:00N 40°38' W 074°12'0 0.0
2017-Oct-18 09:30N 40°38' W 074°12'0 0.0
2017-Oct-18 09:01N 40°38' W 074°12'0 0.0
2017-Oct-18 08:30N 40°38' W 074°12'0 0.6
2017-Oct-18 08:00N 40°39' W 074°11'3 4.9
2017-Oct-18 07:30N 40°39' W 074°08'2 5.1
2017-Oct-18 07:01N 40°39' W 074°05'2 4.4
2017-Oct-18 06:31N 40°40' W 074°02'3 5.6
2017-Oct-18 06:01N 40°42' W 073°60'3 5.4
2017-Oct-18 05:31N 40°45' W 073°58'4 7.6
2017-Oct-18 05:00N 40°48' W 073°55'2 4.3
2017-Oct-18 04:27N 40°47' W 073°52'1 3.0
2017-Oct-18 04:00N 40°46' W 073°51'0 0.0
2017-Oct-17 22:47N 40°46' W 073°51'0 0.1
2017-Oct-17 22:11N 40°46' W 073°51'0 0.2
2017-Oct-17 21:53N 40°46' W 073°51'0 0.0
2017-Oct-17 21:23N 40°46' W 073°51'0 0.0
2017-Oct-17 20:59N 40°46' W 073°51'0 0.0
2017-Oct-17 17:14N 40°46' W 073°51'0 0.0
2017-Oct-17 16:56N 40°46' W 073°51'0 0.0
2017-Oct-17 15:59N 40°46' W 073°51'0 0.0
2017-Oct-17 15:14N 40°46' W 073°51'0 0.0
2017-Oct-17 14:17N 40°46' W 073°51'0 0.0
2017-Oct-17 13:14N 40°46' W 073°51'0 0.0
2017-Oct-17 12:59N 40°46' W 073°51'0 0.0
2017-Oct-17 12:30N 40°46' W 073°51'0 0.0
2017-Oct-17 12:01N 40°46' W 073°51'1 1.3
2017-Oct-17 11:29N 40°47' W 073°51'2 4.8
2017-Oct-17 11:00N 40°48' W 073°54'4 8.1
2017-Oct-17 10:30N 40°45' W 073°58'3 6.8
2017-Oct-17 10:01N 40°42' W 073°60'3 6.3
2017-Oct-17 09:31N 40°40' W 074°03'2 4.8
2017-Oct-17 09:00N 40°39' W 074°05'2 4.0
2017-Oct-17 08:30N 40°39' W 074°08'2 4.4
2017-Oct-17 08:00N 40°39' W 074°11'1 1.4
2017-Oct-17 07:30N 40°38' W 074°12'1 2.9
2017-Oct-17 07:00N 40°39' W 074°10'3 5.4
2017-Oct-17 06:30N 40°39' W 074°06'2 4.6
2017-Oct-17 06:01N 40°40' W 074°03'3 5.5
2017-Oct-17 05:31N 40°41' W 074°01'3 5.9
2017-Oct-17 05:00N 40°44' W 073°58'4 6.9
2017-Oct-17 04:29N 40°47' W 073°56'3 5.5
2017-Oct-17 03:59N 40°48' W 073°53'2 3.2
2017-Oct-17 03:29N 40°47' W 073°51'0 0.1
2017-Oct-17 00:06N 40°46' W 073°51'0 0.1
2017-Oct-16 23:56N 40°46' W 073°51'0 0.0
2017-Oct-16 23:05N 40°46' W 073°51'0 0.3
2017-Oct-16 22:55N 40°46' W 073°51'0 0.0
2017-Oct-16 22:20N 40°46' W 073°51'0 0.1
2017-Oct-16 22:00N 40°46' W 073°51'0 0.0
2017-Oct-16 21:31N 40°46' W 073°51'0 0.9
2017-Oct-16 21:00N 40°47' W 073°51'2 4.5
2017-Oct-16 20:30N 40°48' W 073°54'4 7.6
2017-Oct-16 19:59N 40°46' W 073°57'3 6.7
2017-Oct-16 19:31N 40°43' W 073°59'3 6.0
2017-Oct-16 19:01N 40°41' W 074°02'2 3.9
2017-Oct-16 18:30N 40°39' W 074°03'2 4.1
2017-Oct-16 17:59N 40°39' W 074°06'2 4.4
2017-Oct-16 17:25N 40°39' W 074°09'2 4.1
2017-Oct-16 17:00N 40°38' W 074°12'0 0.0
2017-Oct-16 15:35N 40°38' W 074°12'0 0.0
2017-Oct-16 15:26N 40°38' W 074°12'0 0.0
2017-Oct-16 14:50N 40°38' W 074°12'0 0.0
2017-Oct-16 13:59N 40°38' W 074°12'0 0.1
2017-Oct-16 13:29N 40°38' W 074°12'0 0.0
2017-Oct-16 12:53N 40°38' W 074°12'0 0.0
2017-Oct-16 12:29N 40°38' W 074°12'0 0.0
2017-Oct-16 11:59N 40°38' W 074°12'0 0.0
2017-Oct-16 11:17N 40°38' W 074°12'0 0.0
2017-Oct-16 10:53N 40°38' W 074°12'0 0.0
2017-Oct-16 10:23N 40°38' W 074°12'0 0.0
2017-Oct-16 09:59N 40°38' W 074°12'0 0.0
2017-Oct-16 09:29N 40°38' W 074°12'0 0.0
2017-Oct-16 08:59N 40°38' W 074°12'0 0.0
2017-Oct-16 08:23N 40°38' W 074°12'0 0.0
2017-Oct-16 07:56N 40°38' W 074°12'0 0.0
2017-Oct-16 07:29N 40°38' W 074°12'0 0.0
2017-Oct-16 06:59N 40°38' W 074°12'0 0.0
2017-Oct-16 06:29N 40°38' W 074°12'0 0.0
2017-Oct-16 05:59N 40°38' W 074°12'0 0.0
2017-Oct-16 05:29N 40°38' W 074°12'0 0.0
2017-Oct-16 04:59N 40°38' W 074°12'0 0.0
2017-Oct-16 04:29N 40°38' W 074°12'0 0.0
2017-Oct-16 03:59N 40°38' W 074°12'0 0.0
2017-Oct-16 03:29N 40°38' W 074°12'0 0.0
2017-Oct-16 02:59N 40°38' W 074°12'0 0.0
2017-Oct-16 02:29N 40°38' W 074°12'0 0.0
2017-Oct-16 01:59N 40°38' W 074°12'0 0.0
2017-Oct-16 01:20N 40°38' W 074°12'0 0.0
2017-Oct-16 00:53N 40°38' W 074°12'0 0.0
2017-Oct-16 00:29N 40°38' W 074°12'0 0.0
2017-Oct-15 23:59N 40°38' W 074°12'0 0.0
2017-Oct-15 23:29N 40°38' W 074°12'0 0.0
2017-Oct-15 22:56N 40°38' W 074°12'0 0.0
2017-Oct-15 22:29N 40°38' W 074°12'0 0.1
2017-Oct-15 21:58N 40°38' W 074°12'0 0.0
2017-Oct-15 21:28N 40°38' W 074°12'0 0.0
2017-Oct-15 20:58N 40°38' W 074°12'0 0.0
2017-Oct-15 20:22N 40°38' W 074°12'0 0.0
2017-Oct-15 19:58N 40°38' W 074°12'0 0.0
2017-Oct-15 19:28N 40°38' W 074°12'0 0.0
2017-Oct-15 18:59N 40°38' W 074°12'0 0.0
2017-Oct-15 18:28N 40°38' W 074°12'0 0.0
2017-Oct-15 17:59N 40°38' W 074°12'1 1.8
2017-Oct-15 17:30N 40°39' W 074°11'2 4.7
2017-Oct-15 16:59N 40°39' W 074°08'2 4.6
2017-Oct-15 16:30N 40°39' W 074°05'2 4.4
2017-Oct-15 16:00N 40°40' W 074°02'3 5.3
2017-Oct-15 15:30N 40°42' W 073°60'3 5.5
2017-Oct-15 15:00N 40°45' W 073°58'5 4.7
2017-Oct-15 13:51N 40°47' W 073°52'1 3.3
2017-Oct-15 13:30N 40°46' W 073°51'0 0.0
2017-Oct-13 22:24N 40°46' W 073°51'0 0.0
2017-Oct-13 22:00N 40°46' W 073°51'1 2.6
2017-Oct-13 21:30N 40°47' W 073°52'2 3.9
2017-Oct-13 20:59N 40°48' W 073°54'3 6.0
2017-Oct-13 20:30N 40°46' W 073°57'3 5.8
2017-Oct-13 20:00N 40°43' W 073°58'3 6.3
2017-Oct-13 19:30N 40°41' W 074°01'3 5.4
2017-Oct-13 18:58N 40°39' W 074°04'3 4.8
2017-Oct-13 18:18N 40°39' W 074°08'2 5.2
2017-Oct-13 18:00N 40°39' W 074°11'1 1.6
2017-Oct-13 17:19N 40°38' W 074°12'0 0.0
2017-Oct-13 16:49N 40°38' W 074°12'0 0.0
2017-Oct-13 16:28N 40°38' W 074°12'0 0.0
2017-Oct-13 15:49N 40°38' W 074°12'0 0.4
2017-Oct-13 15:26N 40°38' W 074°12'1 3.1
2017-Oct-13 15:00N 40°39' W 074°10'2 4.5
2017-Oct-13 14:30N 40°39' W 074°07'2 3.9
2017-Oct-13 14:00N 40°39' W 074°04'2 4.2
2017-Oct-13 13:30N 40°41' W 074°02'3 5.6
2017-Oct-13 13:00N 40°42' W 073°60'3 5.8
2017-Oct-13 12:30N 40°45' W 073°58'4 7.4
2017-Oct-13 11:59N 40°48' W 073°54'2 4.2
2017-Oct-13 11:27N 40°47' W 073°52'1 0.4
2017-Oct-13 08:08N 40°46' W 073°51'0 0.0
2017-Oct-13 07:41N 40°46' W 073°51'0 0.0
2017-Oct-13 07:26N 40°46' W 073°51'0 0.0
2017-Oct-13 06:57N 40°46' W 073°51'0 0.1
2017-Oct-13 06:21N 40°46' W 073°51'0 0.0
2017-Oct-13 05:57N 40°46' W 073°51'0 0.0
2017-Oct-13 05:27N 40°46' W 073°51'0 0.0
2017-Oct-13 04:54N 40°46' W 073°51'0 0.0
2017-Oct-13 04:30N 40°46' W 073°51'0 0.0
2017-Oct-13 03:33N 40°46' W 073°51'0 0.0
2017-Oct-13 03:21N 40°46' W 073°51'0 0.0
2017-Oct-13 02:15N 40°46' W 073°51'0 0.0
2017-Oct-13 01:57N 40°46' W 073°51'0 0.0
2017-Oct-13 01:27N 40°46' W 073°51'0 0.0
2017-Oct-12 22:23N 40°46' W 073°51'0 0.0
2017-Oct-12 21:51N 40°46' W 073°51'0 0.0
2017-Oct-12 21:29N 40°46' W 073°51'0 0.0
2017-Oct-12 21:00N 40°46' W 073°51'0 0.0
2017-Oct-12 20:30N 40°46' W 073°51'0 0.0
2017-Oct-12 20:00N 40°46' W 073°51'0 0.0
2017-Oct-12 19:30N 40°46' W 073°51'1 2.6
2017-Oct-12 19:00N 40°47' W 073°52'2 4.0
2017-Oct-12 18:28N 40°48' W 073°54'3 7.2
2017-Oct-12 17:59N 40°45' W 073°58'3 6.0
2017-Oct-12 17:30N 40°42' W 073°59'3 5.7
2017-Oct-12 17:00N 40°41' W 074°02'2 4.9
2017-Oct-12 16:30N 40°39' W 074°04'3 4.1
2017-Oct-12 15:51N 40°39' W 074°08'2 3.9
2017-Oct-12 15:28N 40°39' W 074°10'1 3.2
2017-Oct-12 15:00N 40°38' W 074°12'1 1.5
2017-Oct-12 14:30N 40°39' W 074°11'3 4.8
2017-Oct-12 13:59N 40°39' W 074°08'  

Dump ship's entire track history